createdAt,value
2019-05-12T00:00:12.228Z,3.60
2019-05-12T00:02:39.984Z,3.00
2019-05-12T00:05:08.732Z,3.27
2019-05-12T00:07:38.145Z,3.33
2019-05-12T00:10:08.440Z,3.73
2019-05-12T00:12:37.910Z,3.70
2019-05-12T00:15:08.176Z,3.40
2019-05-12T00:17:38.537Z,3.47
2019-05-12T00:20:08.313Z,3.27
2019-05-12T00:22:40.925Z,3.77
2019-05-12T00:25:08.937Z,3.87
2019-05-12T00:27:38.699Z,3.60
2019-05-12T00:30:09.658Z,4.13
2019-05-12T00:32:35.813Z,3.20
2019-05-12T00:35:03.635Z,3.80
2019-05-12T00:37:31.342Z,3.43
2019-05-12T00:39:59.072Z,6.63
2019-05-12T00:42:28.679Z,4.10
2019-05-12T00:44:58.429Z,5.00
2019-05-12T00:47:27.924Z,4.00
2019-05-12T00:49:55.291Z,3.80
2019-05-12T00:52:23.028Z,3.70
2019-05-12T00:54:50.681Z,4.07
2019-05-12T00:57:18.360Z,4.60
2019-05-12T00:59:47.774Z,4.20
2019-05-12T01:02:15.572Z,3.83
2019-05-12T01:04:43.265Z,4.03
2019-05-12T01:07:10.992Z,4.47
2019-05-12T01:09:38.699Z,4.17
2019-05-12T01:12:07.951Z,4.47
2019-05-12T01:14:35.803Z,4.20
2019-05-12T01:17:03.618Z,4.07
2019-05-12T01:19:31.434Z,4.80
2019-05-12T01:21:59.108Z,4.67
2019-05-12T01:24:28.231Z,4.70
2019-05-12T01:26:58.153Z,6.30
2019-05-12T01:29:28.024Z,4.87
2019-05-12T01:32:04.847Z,4.63
2019-05-12T01:34:32.542Z,4.53
2019-05-12T01:37:34.887Z,4.70
2019-05-12T01:40:03.260Z,4.63
2019-05-12T01:42:31.057Z,4.65
2019-05-12T01:44:58.739Z,5.37
2019-05-12T01:47:28.917Z,4.97
2019-05-12T01:49:58.117Z,4.80
2019-05-12T01:52:28.385Z,4.77
2019-05-12T01:54:55.282Z,4.77
2019-05-12T01:57:23.031Z,4.53
2019-05-12T01:59:50.765Z,4.30
2019-05-12T02:02:18.435Z,5.30
2019-05-12T02:05:04.170Z,5.00
2019-05-12T02:07:34.150Z,4.57
2019-05-12T02:10:01.861Z,5.20
2019-05-12T02:12:29.652Z,4.25
2019-05-12T02:14:58.912Z,4.63
2019-05-12T02:17:28.345Z,5.10
2019-05-12T02:19:58.579Z,5.00
2019-05-12T02:22:27.433Z,4.90
2019-05-12T02:24:55.187Z,5.12
2019-05-12T02:27:22.846Z,4.80
2019-05-12T02:29:50.511Z,5.00
2019-05-12T02:32:18.222Z,5.23
2019-05-12T02:34:45.916Z,5.23
2019-05-12T02:37:15.313Z,4.87
2019-05-12T02:39:44.904Z,4.77
2019-05-12T02:42:15.392Z,4.42
2019-05-12T02:44:44.340Z,4.20
2019-05-12T02:47:11.687Z,4.37
2019-05-12T02:49:39.365Z,5.20
2019-05-12T02:52:07.397Z,5.20
2019-05-12T02:54:50.878Z,5.55
2019-05-12T02:57:04.912Z,5.70
2019-05-12T02:59:34.829Z,5.00
2019-05-12T03:02:05.277Z,5.60
2019-05-12T03:04:35.179Z,5.77
2019-05-12T03:07:06.349Z,5.45
2019-05-12T03:09:35.143Z,5.95
2019-05-12T03:12:05.515Z,5.00
2019-05-12T03:14:37.138Z,6.40
2019-05-12T03:17:04.575Z,5.65
2019-05-12T03:19:30.746Z,5.40
2019-05-12T03:21:58.443Z,6.10
2019-05-12T03:24:26.103Z,5.90
2019-05-12T03:26:55.268Z,6.97
2019-05-12T03:29:25.143Z,7.10
2019-05-12T03:31:57.066Z,6.42
2019-05-12T03:34:22.151Z,6.25
2019-05-12T03:36:51.890Z,6.83
2019-05-12T03:39:19.414Z,6.40
2019-05-12T03:41:47.121Z,6.37
2019-05-12T03:44:15.239Z,6.80
2019-05-12T03:46:45.568Z,6.60
2019-05-12T03:49:15.415Z,6.37
2019-05-12T03:51:45.379Z,6.40
2019-05-12T03:54:14.983Z,6.95
2019-05-12T03:56:41.160Z,7.03
2019-05-12T03:59:08.862Z,6.60
2019-05-12T04:01:37.023Z,7.07
2019-05-12T04:04:05.362Z,7.33
2019-05-12T04:06:34.604Z,6.60
2019-05-12T04:09:04.833Z,6.20
2019-05-12T04:11:35.429Z,6.87
2019-05-12T04:14:05.227Z,5.73
2019-05-12T04:16:31.719Z,5.80
2019-05-12T04:18:59.389Z,5.77
2019-05-12T04:21:27.068Z,6.07
2019-05-12T04:23:55.025Z,6.13
2019-05-12T04:26:25.279Z,5.73
2019-05-12T04:28:54.866Z,5.73
2019-05-12T04:31:24.466Z,5.97
2019-05-12T04:33:54.467Z,6.50
2019-05-12T04:36:20.848Z,6.23
2019-05-12T04:38:48.532Z,5.47
2019-05-12T04:41:19.908Z,6.00
2019-05-12T04:43:45.777Z,6.50
2019-05-12T04:46:14.481Z,5.37
2019-05-12T04:48:45.034Z,5.83
2019-05-12T04:51:15.152Z,4.70
2019-05-12T04:53:44.661Z,4.63
2019-05-12T04:56:19.287Z,5.40
2019-05-12T04:58:40.500Z,5.17
2019-05-12T05:01:08.201Z,4.60
2019-05-12T05:03:35.896Z,4.93
2019-05-12T05:06:04.480Z,5.30
2019-05-12T05:08:34.882Z,4.70
2019-05-12T05:11:04.070Z,4.33
2019-05-12T05:13:35.116Z,4.90
2019-05-12T05:16:00.930Z,4.03
2019-05-12T05:18:28.612Z,4.40
2019-05-12T05:20:56.339Z,4.70
2019-05-12T05:23:24.286Z,4.43
2019-05-12T05:25:53.842Z,3.30
2019-05-12T05:28:23.504Z,4.10
2019-05-12T05:30:53.344Z,3.20
2019-05-12T05:33:20.639Z,3.50
2019-05-12T05:35:48.352Z,3.73
2019-05-12T05:38:20.554Z,3.63
2019-05-12T05:40:45.570Z,3.57
2019-05-12T05:43:18.205Z,3.80
2019-05-12T05:45:43.844Z,3.33
2019-05-12T05:48:13.558Z,3.47
2019-05-12T05:50:43.700Z,3.00
2019-05-12T05:53:17.384Z,3.50
2019-05-12T05:55:40.133Z,3.13
2019-05-12T05:58:10.400Z,3.07
2019-05-12T06:00:39.462Z,2.70
2019-05-12T06:03:16.626Z,2.90
2019-05-12T06:05:38.594Z,2.83
2019-05-12T06:08:09.624Z,2.63
2019-05-12T06:10:40.114Z,2.77
2019-05-12T06:13:04.794Z,3.17
2019-05-12T06:15:35.914Z,3.03
2019-05-12T06:18:03.606Z,3.23
2019-05-12T06:20:36.913Z,2.50
2019-05-12T06:23:01.058Z,2.83
2019-05-12T06:25:44.545Z,2.33
2019-05-12T06:28:00.071Z,2.73
2019-05-12T06:30:27.862Z,2.73
2019-05-12T06:32:55.499Z,3.60
2019-05-12T06:35:24.102Z,2.70
2019-05-12T06:38:00.181Z,2.50
2019-05-12T06:40:21.444Z,2.67
2019-05-12T06:42:53.967Z,3.03
2019-05-12T06:45:18.718Z,2.60
2019-05-12T06:47:49.592Z,2.50
2019-05-12T06:50:15.899Z,2.40
2019-05-12T06:52:48.720Z,2.43
2019-05-12T06:55:14.593Z,2.40
2019-05-12T06:57:45.896Z,2.30
2019-05-12T07:00:14.461Z,2.33
2019-05-12T07:02:51.683Z,2.67
2019-05-12T07:05:11.579Z,2.63
2019-05-12T07:07:41.877Z,2.33
2019-05-12T07:10:13.115Z,2.60
2019-05-12T07:12:54.131Z,2.60
2019-05-12T07:15:08.716Z,3.23
2019-05-12T07:17:49.576Z,2.70
2019-05-12T07:20:14.916Z,2.50
2019-05-12T07:22:45.893Z,2.60
2019-05-12T07:25:13.386Z,1.97
2019-05-12T07:27:45.670Z,2.60
2019-05-12T07:30:10.931Z,2.40
2019-05-12T07:32:38.585Z,2.40
2019-05-12T07:35:06.574Z,1.83
2019-05-12T07:37:34.842Z,2.07
2019-05-12T07:40:04.787Z,2.10
2019-05-12T07:42:39.399Z,2.13
2019-05-12T07:45:05.855Z,2.20
2019-05-12T07:47:33.581Z,2.20
2019-05-12T07:50:18.231Z,1.90
2019-05-12T07:52:40.982Z,1.90
2019-05-12T07:55:08.808Z,2.40
2019-05-12T07:57:51.736Z,2.33
2019-05-12T08:00:11.401Z,2.10
2019-05-12T08:02:36.188Z,1.90
2019-05-12T08:05:04.383Z,2.13
2019-05-12T08:07:33.755Z,1.97
2019-05-12T08:10:07.211Z,2.10
2019-05-12T08:12:31.151Z,1.70
2019-05-12T08:14:59.472Z,1.80
2019-05-12T08:17:28.328Z,1.53
2019-05-12T08:19:55.996Z,1.53
2019-05-12T08:22:24.977Z,1.53
2019-05-12T08:24:53.708Z,1.50
2019-05-12T08:27:23.410Z,1.50
2019-05-12T08:29:52.415Z,1.57
2019-05-12T08:32:20.656Z,1.43
2019-05-12T08:34:48.395Z,1.50
2019-05-12T08:37:16.166Z,1.20
2019-05-12T08:39:44.274Z,1.20
2019-05-12T08:42:14.373Z,1.50
2019-05-12T08:44:43.807Z,1.53
2019-05-12T08:47:12.115Z,1.53
2019-05-12T08:49:50.003Z,1.33
2019-05-12T08:52:10.117Z,1.30
2019-05-12T08:54:39.623Z,1.63
2019-05-12T08:57:07.294Z,1.37
2019-05-12T08:59:35.026Z,1.40
2019-05-12T09:02:07.377Z,1.60
2019-05-12T09:04:33.893Z,1.33
2019-05-12T09:07:03.975Z,1.50
2019-05-12T09:09:33.619Z,1.17
2019-05-12T09:12:00.997Z,1.10
2019-05-12T09:14:35.554Z,1.50
2019-05-12T09:17:02.561Z,1.40
2019-05-12T09:19:27.671Z,1.37
2019-05-12T09:21:55.359Z,1.30
2019-05-12T09:24:27.251Z,1.30
2019-05-12T09:26:53.849Z,1.20
2019-05-12T09:29:21.763Z,1.03
2019-05-12T09:31:50.674Z,1.30
2019-05-12T09:34:18.450Z,1.50
2019-05-12T09:36:46.135Z,1.20
2019-05-12T09:39:14.238Z,1.33
2019-05-12T09:41:46.857Z,1.20
2019-05-12T09:44:13.386Z,0.97
2019-05-12T09:46:41.089Z,1.07
2019-05-12T09:49:08.778Z,1.27
2019-05-12T09:51:41.436Z,1.47
2019-05-12T09:54:05.950Z,1.20
2019-05-12T09:56:34.188Z,1.20
2019-05-12T09:59:16.929Z,1.80
2019-05-12T10:01:35.338Z,0.90
2019-05-12T10:04:03.325Z,1.00
2019-05-12T10:06:30.554Z,1.00
2019-05-12T10:08:58.328Z,1.17
2019-05-12T10:11:26.048Z,1.30
2019-05-12T10:13:54.360Z,1.00
2019-05-12T10:16:24.107Z,1.20
2019-05-12T10:18:52.660Z,1.00
2019-05-12T10:21:20.559Z,1.00
2019-05-12T10:23:51.645Z,1.30
2019-05-12T10:26:17.811Z,0.90
2019-05-12T10:28:52.037Z,1.50
2019-05-12T10:31:18.072Z,1.20
2019-05-12T10:33:49.109Z,1.30
2019-05-12T10:36:13.940Z,1.20
2019-05-12T10:38:43.396Z,1.47
2019-05-12T10:41:12.997Z,1.17
2019-05-12T10:43:40.680Z,1.10
2019-05-12T10:46:08.348Z,0.90
2019-05-12T10:48:36.099Z,1.20
2019-05-12T10:51:03.797Z,1.13
2019-05-12T10:53:31.470Z,1.20
2019-05-12T10:55:59.213Z,1.20
2019-05-12T10:58:27.024Z,1.10
2019-05-12T11:01:02.503Z,1.10
2019-05-12T11:03:24.527Z,0.70
2019-05-12T11:05:54.662Z,0.83
2019-05-12T11:08:24.507Z,1.20
2019-05-12T11:10:59.250Z,1.00
2019-05-12T11:13:20.783Z,0.90
2019-05-12T11:15:49.782Z,1.17
2019-05-12T11:18:20.563Z,1.00
2019-05-12T11:20:48.743Z,1.03
2019-05-12T11:23:16.437Z,1.17
2019-05-12T11:25:44.127Z,1.03
2019-05-12T11:28:13.877Z,1.50
2019-05-12T11:30:43.519Z,1.20
2019-05-12T11:33:10.733Z,1.00
2019-05-12T11:35:38.414Z,1.10
2019-05-12T11:38:06.132Z,1.13
2019-05-12T11:40:34.766Z,1.17
2019-05-12T11:43:04.244Z,1.00
2019-05-12T11:45:33.621Z,0.90
2019-05-12T11:48:05.813Z,1.13
2019-05-12T11:50:31.211Z,1.10
2019-05-12T11:52:59.029Z,1.00
2019-05-12T11:55:31.335Z,0.87
2019-05-12T11:58:00.344Z,1.10
2019-05-12T12:00:27.691Z,0.90
2019-05-12T12:02:55.381Z,1.27
2019-05-12T12:05:23.509Z,0.80
2019-05-12T12:07:53.441Z,0.90
2019-05-12T12:10:23.292Z,1.20
2019-05-12T12:12:50.786Z,0.90
2019-05-12T12:15:25.173Z,1.00
2019-05-12T12:17:49.736Z,1.10
2019-05-12T12:20:22.561Z,1.10
2019-05-12T12:22:47.046Z,1.10
2019-05-12T12:25:17.936Z,0.93
2019-05-12T12:27:45.656Z,0.90
2019-05-12T12:30:19.205Z,0.80
2019-05-12T12:32:44.339Z,0.97
2019-05-12T12:35:14.981Z,0.67
2019-05-12T12:37:41.723Z,1.07
2019-05-12T12:40:09.810Z,0.90
2019-05-12T12:42:44.214Z,0.87
2019-05-12T12:45:20.418Z,0.80
2019-05-12T12:47:49.348Z,0.77
2019-05-12T12:50:20.254Z,1.30
2019-05-12T12:52:48.815Z,0.90
2019-05-12T12:55:16.195Z,1.10
2019-05-12T12:57:46.371Z,1.03
2019-05-12T13:00:17.861Z,1.40
2019-05-12T13:02:45.208Z,1.20
2019-05-12T13:05:13.586Z,1.00
2019-05-12T13:07:43.859Z,1.03
2019-05-12T13:10:10.980Z,1.37
2019-05-12T13:12:38.661Z,1.00
2019-05-12T13:15:06.603Z,0.87
2019-05-12T13:17:40.077Z,0.90
2019-05-12T13:20:04.210Z,1.10
2019-05-12T13:22:33.709Z,1.50
2019-05-12T13:25:04.325Z,1.00
2019-05-12T13:27:34.081Z,1.10
2019-05-12T13:30:02.146Z,1.30
2019-05-12T13:32:32.114Z,1.20
2019-05-12T13:34:59.301Z,0.90
2019-05-12T13:37:26.999Z,0.90
2019-05-12T13:39:58.526Z,1.13
2019-05-12T13:42:24.253Z,1.10
2019-05-12T13:44:51.974Z,1.30
2019-05-12T13:47:19.671Z,1.27
2019-05-12T13:49:47.674Z,1.33
2019-05-12T13:52:20.095Z,1.20
2019-05-12T13:54:44.924Z,1.10
2019-05-12T13:57:13.345Z,1.10
2019-05-12T13:59:43.308Z,1.50
2019-05-12T14:02:13.989Z,1.50
2019-05-12T14:04:40.353Z,1.17
2019-05-12T14:07:09.366Z,2.00
2019-05-12T14:09:37.529Z,1.43
2019-05-12T14:12:05.235Z,1.50
2019-05-12T14:14:34.055Z,1.40
2019-05-12T14:17:03.918Z,1.43
2019-05-12T14:19:35.655Z,1.10
2019-05-12T14:22:00.789Z,1.50
2019-05-12T14:24:35.714Z,0.90
2019-05-12T14:26:58.040Z,1.20
2019-05-12T14:29:29.266Z,2.23
2019-05-12T14:32:01.954Z,1.70
2019-05-12T14:34:24.682Z,3.47
2019-05-12T14:37:05.082Z,2.33
2019-05-12T14:39:23.947Z,3.63
2019-05-12T14:41:53.054Z,3.10
2019-05-12T14:44:20.955Z,1.60
2019-05-12T14:46:50.573Z,1.70
2019-05-12T14:49:20.191Z,1.53
2019-05-12T14:51:47.711Z,1.30
2019-05-12T14:54:15.369Z,1.43
2019-05-12T14:56:47.208Z,1.27
2019-05-12T14:59:14.438Z,1.27
2019-05-12T15:01:56.579Z,1.33
2019-05-12T15:04:13.276Z,1.47
2019-05-12T15:06:41.164Z,1.20
2019-05-12T15:09:11.429Z,1.30
2019-05-12T15:11:38.309Z,1.40
2019-05-12T15:14:05.998Z,1.67
2019-05-12T15:16:40.379Z,1.43
2019-05-12T15:19:03.516Z,1.00
2019-05-12T15:21:31.481Z,1.10
2019-05-12T15:23:59.684Z,1.50
2019-05-12T15:26:27.376Z,1.10
2019-05-12T15:28:55.049Z,1.00
2019-05-12T15:31:23.563Z,1.17
2019-05-12T15:33:51.447Z,0.80
2019-05-12T15:36:19.194Z,1.10
2019-05-12T15:38:49.152Z,1.37
2019-05-12T15:41:19.979Z,1.10
2019-05-12T15:43:48.895Z,0.80
2019-05-12T15:46:16.517Z,1.07
2019-05-12T15:48:44.707Z,1.20
2019-05-12T15:51:13.638Z,1.20
2019-05-12T15:53:44.383Z,0.90
2019-05-12T15:56:19.263Z,1.20
2019-05-12T15:58:40.588Z,1.00
2019-05-12T16:01:08.259Z,1.43
2019-05-12T16:03:35.961Z,1.13
2019-05-12T16:06:10.218Z,1.20
2019-05-12T16:08:33.136Z,1.27
2019-05-12T16:11:00.825Z,1.37
2019-05-12T16:13:28.526Z,1.47
2019-05-12T16:16:03.193Z,1.27
2019-05-12T16:18:26.762Z,1.00
2019-05-12T16:21:14.586Z,1.83
2019-05-12T16:23:44.552Z,1.00
2019-05-12T16:26:14.687Z,1.27
2019-05-12T16:28:43.950Z,1.03
2019-05-12T16:31:10.826Z,1.10
2019-05-12T16:33:38.528Z,1.20
2019-05-12T16:36:11.276Z,1.03
2019-05-12T16:38:35.915Z,1.20
2019-05-12T16:41:03.916Z,1.60
2019-05-12T16:43:34.968Z,1.10
2019-05-12T16:46:01.456Z,1.07
2019-05-12T16:48:33.080Z,1.10
2019-05-12T16:50:58.674Z,1.20
2019-05-12T16:53:27.804Z,0.90
2019-05-12T16:55:55.827Z,1.10
2019-05-12T16:58:32.249Z,0.97
2019-05-12T17:00:53.418Z,1.03
2019-05-12T17:03:23.623Z,1.23
2019-05-12T17:05:55.983Z,0.97
2019-05-12T17:08:20.399Z,1.10
2019-05-12T17:10:58.368Z,0.93
2019-05-12T17:13:17.544Z,1.07
2019-05-12T17:15:48.616Z,1.20
2019-05-12T17:18:14.716Z,0.67
2019-05-12T17:20:46.983Z,1.00
2019-05-12T17:23:13.919Z,1.00
2019-05-12T17:25:41.449Z,0.80
2019-05-12T17:28:09.135Z,0.97
2019-05-12T17:30:36.965Z,1.00
2019-05-12T17:33:05.319Z,1.10
2019-05-12T17:35:34.971Z,1.17
2019-05-12T17:38:04.228Z,1.03
2019-05-12T17:40:33.879Z,1.00
2019-05-12T17:43:06.708Z,0.90
2019-05-12T17:45:31.179Z,1.03
2019-05-12T17:48:02.688Z,0.93
2019-05-12T17:50:28.378Z,1.00
2019-05-12T17:53:00.242Z,2.30
2019-05-12T17:55:25.556Z,0.80
2019-05-12T17:57:56.260Z,1.27
2019-05-12T18:00:23.475Z,0.77
2019-05-12T18:02:54.906Z,1.00
2019-05-12T18:05:23.840Z,0.80
2019-05-12T18:07:53.252Z,1.10
2019-05-12T18:10:21.043Z,1.10
2019-05-12T18:12:48.737Z,0.90
2019-05-12T18:15:16.921Z,0.83
2019-05-12T18:17:49.673Z,1.00
2019-05-12T18:20:16.047Z,1.00
2019-05-12T18:22:44.904Z,0.90
2019-05-12T18:25:14.673Z,1.20
2019-05-12T18:27:48.910Z,1.13
2019-05-12T18:30:15.427Z,1.10
2019-05-12T18:32:42.226Z,1.17
2019-05-12T18:35:13.940Z,1.00
2019-05-12T18:37:41.751Z,0.90
2019-05-12T18:40:10.062Z,0.80
2019-05-12T18:42:37.769Z,1.10
2019-05-12T18:45:11.861Z,0.80
2019-05-12T18:47:36.548Z,0.90
2019-05-12T18:50:05.052Z,1.43
2019-05-12T18:52:37.682Z,1.40
2019-05-12T18:55:02.250Z,1.10
2019-05-12T18:57:30.085Z,1.20
2019-05-12T19:00:01.570Z,1.07
2019-05-12T19:02:28.578Z,1.00
2019-05-12T19:04:56.497Z,1.00
2019-05-12T19:07:38.615Z,0.80
2019-05-12T19:09:53.644Z,1.07
2019-05-12T19:12:31.115Z,0.90
2019-05-12T19:14:52.521Z,1.00
2019-05-12T19:17:20.492Z,1.13
2019-05-12T19:19:52.106Z,0.80
2019-05-12T19:22:17.676Z,1.03
2019-05-12T19:24:50.000Z,0.87
2019-05-12T19:27:16.523Z,0.90
2019-05-12T19:29:48.278Z,1.00
2019-05-12T19:32:14.323Z,0.87
2019-05-12T19:34:43.330Z,1.00
2019-05-12T19:37:14.145Z,0.93
2019-05-12T19:39:41.129Z,1.20
2019-05-12T19:42:10.444Z,0.83
2019-05-12T19:44:38.326Z,1.17
2019-05-12T19:47:06.032Z,0.90
2019-05-12T19:49:46.906Z,0.93
2019-05-12T19:52:03.619Z,1.87
2019-05-12T19:54:34.656Z,0.83
2019-05-12T19:57:02.732Z,1.07
2019-05-12T19:59:30.418Z,1.27
2019-05-12T20:01:58.224Z,1.17
2019-05-12T20:04:33.386Z,0.93
2019-05-12T20:06:55.437Z,1.50
2019-05-12T20:09:24.361Z,1.03
2019-05-12T20:11:53.668Z,1.10
2019-05-12T20:14:24.007Z,1.10
2019-05-12T20:16:51.101Z,1.60
2019-05-12T20:19:19.854Z,2.10
2019-05-12T20:21:48.342Z,1.47
2019-05-12T20:24:16.100Z,1.17
2019-05-12T20:26:44.157Z,1.47
2019-05-12T20:29:13.793Z,1.50
2019-05-12T20:31:44.542Z,1.30
2019-05-12T20:34:19.440Z,1.50
2019-05-12T20:36:47.143Z,1.33
2019-05-12T20:39:19.342Z,1.50
2019-05-12T20:41:44.356Z,1.27
2019-05-12T20:44:17.219Z,1.63
2019-05-12T20:46:43.233Z,1.80
2019-05-12T20:49:12.660Z,1.77
2019-05-12T20:51:40.521Z,1.77
2019-05-12T20:54:16.187Z,1.60
2019-05-12T20:56:37.697Z,1.33
2019-05-12T20:59:05.391Z,1.87
2019-05-12T21:01:33.639Z,1.50
2019-05-12T21:04:03.509Z,1.67
2019-05-12T21:06:33.099Z,1.50
2019-05-12T21:09:00.394Z,2.20
2019-05-12T21:11:28.072Z,1.97
2019-05-12T21:13:55.775Z,1.80
2019-05-12T21:16:30.884Z,1.57
2019-05-12T21:19:02.192Z,1.77
2019-05-12T21:21:25.149Z,1.87
2019-05-12T21:23:53.695Z,2.00
2019-05-12T21:26:21.355Z,1.77
2019-05-12T21:28:49.064Z,2.10
2019-05-12T21:31:20.674Z,1.80
2019-05-12T21:33:46.312Z,1.70
2019-05-12T21:36:17.359Z,2.20
2019-05-12T21:38:43.508Z,1.90
2019-05-12T21:41:13.328Z,2.17
2019-05-12T21:43:40.695Z,2.00
2019-05-12T21:46:12.430Z,2.27
2019-05-12T21:48:37.879Z,2.20
2019-05-12T21:51:09.726Z,2.07
2019-05-12T21:53:35.051Z,1.83
2019-05-12T21:56:04.280Z,1.90
2019-05-12T21:58:32.393Z,2.23
2019-05-12T22:01:05.163Z,2.30
2019-05-12T22:03:33.479Z,2.60
2019-05-12T22:06:06.473Z,2.10
2019-05-12T22:08:31.043Z,2.20
2019-05-12T22:11:00.944Z,2.00
2019-05-12T22:13:28.266Z,2.33
2019-05-12T22:15:56.965Z,2.07
2019-05-12T22:18:25.522Z,2.37
2019-05-12T22:21:01.131Z,2.70
2019-05-12T22:23:24.777Z,2.60
2019-05-12T22:25:55.590Z,2.83
2019-05-12T22:28:23.784Z,2.57
2019-05-12T22:30:51.336Z,2.10
2019-05-12T22:33:19.005Z,2.20
2019-05-12T22:36:00.555Z,2.07
2019-05-12T22:38:20.866Z,2.20
2019-05-12T22:40:49.359Z,2.33
2019-05-12T22:43:15.223Z,2.23
2019-05-12T22:45:46.395Z,2.33
2019-05-12T22:48:12.419Z,2.13
2019-05-12T22:50:40.133Z,2.27
2019-05-12T22:53:07.816Z,3.00
2019-05-12T22:55:36.245Z,2.43
2019-05-12T22:58:04.351Z,2.30
2019-05-12T23:00:34.261Z,2.00
2019-05-12T23:03:07.306Z,2.57
2019-05-12T23:05:31.663Z,1.83
2019-05-12T23:08:00.037Z,1.93
2019-05-12T23:10:28.772Z,2.47
2019-05-12T23:13:01.554Z,2.27
2019-05-12T23:15:25.937Z,2.03
2019-05-12T23:17:53.657Z,2.50
2019-05-12T23:20:25.413Z,2.57
2019-05-12T23:22:50.944Z,2.47
2019-05-12T23:25:21.486Z,2.40
2019-05-12T23:27:48.151Z,2.40
2019-05-12T23:30:16.049Z,2.17
2019-05-12T23:32:51.387Z,2.30
2019-05-12T23:35:14.430Z,3.40
2019-05-12T23:37:44.172Z,2.20
2019-05-12T23:40:16.483Z,2.37
2019-05-12T23:42:41.561Z,2.10
2019-05-12T23:45:09.325Z,2.70
2019-05-12T23:47:37.020Z,2.20
2019-05-12T23:50:05.852Z,2.97
2019-05-12T23:52:34.608Z,3.00
2019-05-12T23:55:02.694Z,2.57
2019-05-12T23:57:30.416Z,2.53
2019-05-12T23:59:58.078Z,2.47
